WetterOnline ( https://www.wetteronline.de )

Wetter aktuell Heiligenstadt

Aktuelles Wetter: Leinefelde (356m)

6-stündlich | Neueste Meldungen
Ortszeit Temperatur Wetter
Fr, 19.07. 2:00 15.6° C bewölkt
Do, 18.07. 20:00 22.1° C bedeckt
Do, 18.07. 14:00 22.5° C -
Do, 18.07. 8:00 14.3° C wolkenlos
Do, 18.07. 2:00 9.7° C leicht bewölkt
Mi, 17.07. 20:00 18.3° C bewölkt
Mi, 17.07. 14:00 17.3° C bedeckt
Mi, 17.07. 8:00 13.0° C bewölkt
Ortszeit Temperatur Wetter
Fr, 19.07. 5:00 16.0° C leichter Regen
Fr, 19.07. 4:50 16.0° C leichter Regen
Fr, 19.07. 4:40 16.6° C leichter Regen
Fr, 19.07. 4:30 17.1° C wolkig
Fr, 19.07. 4:20 17.1° C wolkig
Fr, 19.07. 4:10 17.3° C leichter Regen
Fr, 19.07. 4:00 17.9° C bewölkt
Fr, 19.07. 3:30 15.7° C wolkig
Fr, 19.07. 3:00 17.5° C bewölkt
Fr, 19.07. 2:30 17.4° C bewölkt
Fr, 19.07. 2:00 15.6° C bewölkt
Ortszeit Relative Feuchte Sichtweite
Fr, 19.07. 2:00 81% 40 km
Do, 18.07. 20:00 52% >70 km
Do, 18.07. 14:00 47% 55 km
Do, 18.07. 8:00 84% 30 km
Do, 18.07. 2:00 97% 10 km
Mi, 17.07. 20:00 66% 65 km
Mi, 17.07. 14:00 68% 45 km
Mi, 17.07. 8:00 91% 15 km
Ortszeit Relative Feuchte Sichtweite
Fr, 19.07. 5:00 80% 18 km
Fr, 19.07. 4:50 80% -
Fr, 19.07. 4:40 76% -
Fr, 19.07. 4:30 71% 35 km
Fr, 19.07. 4:20 71% -
Fr, 19.07. 4:10 70% -
Fr, 19.07. 4:00 66% 40 km
Fr, 19.07. 3:30 82% 40 km
Fr, 19.07. 3:00 69% 45 km
Fr, 19.07. 2:30 69% 45 km
Fr, 19.07. 2:00 81% 40 km
Ortszeit Niederschlagsmenge Niederschlagsart
Fr, 19.07. 2:00 0.0 l/m2 in 6 Std. -
Do, 18.07. 20:00 0.0 l/m2 in 12 Std. -
Do, 18.07. 14:00 0.0 l/m2 in 6 Std. -
Do, 18.07. 8:00 0.1 l/m2 in 12 Std. -
Do, 18.07. 2:00 0.0 l/m2 in 6 Std. -
Mi, 17.07. 20:00 0.1 l/m2 in 12 Std. -
Mi, 17.07. 14:00 0.1 l/m2 in 6 Std. Regen
Mi, 17.07. 8:00 0.1 l/m2 in 12 Std. Sprühregen
Ortszeit Niederschlagsmenge Niederschlagsart
Fr, 19.07. 5:00 0.1 l/m2 in 1 Std. Regen
Fr, 19.07. 4:50 keine Meldung -
Fr, 19.07. 4:40 keine Meldung -
Fr, 19.07. 4:30 0.1 l/m2 in 1 Std. Schneeregen
Fr, 19.07. 4:20 keine Meldung -
Fr, 19.07. 4:10 keine Meldung -
Fr, 19.07. 4:00 0.0 l/m2 in 1 Std. -
Fr, 19.07. 3:30 0.0 l/m2 in 1 Std. -
Fr, 19.07. 3:00 0.1 l/m2 in 1 Std. Regen
Fr, 19.07. 2:30 0.0 l/m2 in 1 Std. -
Fr, 19.07. 2:00 0.0 l/m2 in 1 Std. -
Ortszeit Stärke Spitze Richtung
km/h Bft. km/h Grad Sektor
Fr, 19.07. 2:00 7 2 11 260° W
Do, 18.07. 20:00 6 1 35 20° N
Do, 18.07. 14:00 13 3 22 240° SW
Do, 18.07. 8:00 2 1 7 100° O
Do, 18.07. 2:00 4 1 14 280° W
Mi, 17.07. 20:00 4 1 22 300° NW
Mi, 17.07. 14:00 7 2 22 240° SW
Mi, 17.07. 8:00 6 1 11 220° SW
Ortszeit Stärke Spitze Richtung
km/h Bft. km/h Grad Sektor
Fr, 19.07. 5:00 9 2 20 260° W
Fr, 19.07. 4:50 9 2 - 260° W
Fr, 19.07. 4:40 11 2 - 270° W
Fr, 19.07. 4:30 13 3 20 280° W
Fr, 19.07. 4:20 13 3 - 280° W
Fr, 19.07. 4:10 13 3 - 280° W
Fr, 19.07. 4:00 13 3 20 270° W
Fr, 19.07. 3:30 6 1 11 270° W
Fr, 19.07. 3:00 9 2 11 280° W
Fr, 19.07. 2:30 7 2 9 270° W
Fr, 19.07. 2:00 7 2 11 260° W
Ortszeit Untergrenze Bedeckung Gattung
total tief tief mittel hoch
Fr, 19.07. 2:00 2700 m 8/8 4/8 - - -
Do, 18.07. 20:00 6900 m 8/8 8/8 - - -
Do, 18.07. 14:00 - - - - - -
Do, 18.07. 8:00 - 0/8 0/8 - - -
Do, 18.07. 2:00 1260 m 2/8 2/8 - - -
Mi, 17.07. 20:00 1140 m 7/8 7/8 - - -
Mi, 17.07. 14:00 930 m 8/8 8/8 - - -
Mi, 17.07. 8:00 180 m 7/8 7/8 - - -
Ortszeit Bedeckungsgrad in Achtel und Wolkenuntergrenze
Fr, 19.07. 5:00 1(1500m) 8(3600m) 8(4200m)
Fr, 19.07. 4:50 1(1500m) 8(3600m) 8(4200m)
Fr, 19.07. 4:40 2(1500m) 7(2700m) 8(4200m)
Fr, 19.07. 4:30 1(1800m) 7(3000m) 8(3900m)
Fr, 19.07. 4:20 1(1800m) 7(3000m) 8(3900m)
Fr, 19.07. 4:10 2(1500m) 7(2700m) 8(3900m)
Fr, 19.07. 4:00 6(1800m) 7(2100m) 8(3900m)
Fr, 19.07. 3:30 4(1800m) 7(3300m) 7(4200m)
Fr, 19.07. 3:00 7(1800m)
Fr, 19.07. 2:30 5(2100m) 8(4200m) 8(7800m)
Fr, 19.07. 2:00 4(2700m) 8(4200m) 8(6000m)
Ortszeit Luftdruck NN (hPa) Tendenz (hPa in 3 Std.)
Fr, 19.07. 2:00 1013 + 0,5
Do, 18.07. 20:00 1011 - 0,3
Do, 18.07. 14:00 1011 keine Meldung
Do, 18.07. 8:00 1013 - 0,2
Do, 18.07. 2:00 1014 - 0,3
Mi, 17.07. 20:00 1013 - 0,7
Mi, 17.07. 14:00 1015 - 0,1
Mi, 17.07. 8:00 1016 - 0,3
Ortszeit Luftdruck NN (hPa) Tendenz (hPa in 3 Std.)
Fr, 19.07. 5:00 1013 + 0,3
Fr, 19.07. 4:50 1013 keine Meldung
Fr, 19.07. 4:40 1013 keine Meldung
Fr, 19.07. 4:30 1013 + 0,5
Fr, 19.07. 4:20 1013 keine Meldung
Fr, 19.07. 4:10 1013 keine Meldung
Fr, 19.07. 4:00 1013 + 0,4
Fr, 19.07. 3:30 1013 + 0,4
Fr, 19.07. 3:00 1013 + 0,3
Fr, 19.07. 2:30 1013 + 0,4
Fr, 19.07. 2:00 1013 + 0,5
Ortszeit Schneehöhe (cm)
Fr, 19.07. 2:00 -
Do, 18.07. 20:00 -
Do, 18.07. 14:00 -
Do, 18.07. 8:00 -
Do, 18.07. 2:00 -
Mi, 17.07. 20:00 -
Mi, 17.07. 14:00 -
Mi, 17.07. 8:00 -
Ortszeit Schneehöhe (cm)
Fr, 19.07. 5:00 -
Fr, 19.07. 4:50 -
Fr, 19.07. 4:40 -
Fr, 19.07. 4:30 -
Fr, 19.07. 4:20 -
Fr, 19.07. 4:10 -
Fr, 19.07. 4:00 -
Fr, 19.07. 3:30 -
Fr, 19.07. 3:00 -
Fr, 19.07. 2:30 -
Fr, 19.07. 2:00 -
Link zu dieser Seite / Seite empfehlen

Das Wetter in ...